Time;durP1;ratioP1;P1;durP2;ratioP2;P2;SDS_P1;SDS_P2;PMS_P1;PMS_P2;Temp;Humidity;BMP_temperature;BMP_pressure;BME280_temperature;BME280_humidity;BME280_pressure;Samples;Min_cycle;Max_cycle;Signal;HPM_P1;HPM_P2
2022/06/17 00:03:45;;;;;;;6.60;4.13;;;;;;;18.41;56.13;96776.38;5108420;23;20040;-86
2022/06/17 00:06:13;;;;;;;3.78;3.38;;;;;;;18.44;56.08;96776.47;4971594;23;20152;-84
2022/06/17 00:11:11;;;;;;;6.32;3.42;;;;;;;18.42;55.84;96770.50;5189892;23;20080;-81
2022/06/17 00:13:50;;;;;;;4.90;4.03;;;;;;;18.35;55.53;96770.34;4937863;28;20040;-86
2022/06/17 00:16:25;;;;;;;7.07;4.22;;;;;;;18.21;55.66;96767.25;4936880;29;20048;-84
2022/06/17 00:18:53;;;;;;;7.55;4.38;;;;;;;18.11;55.73;96760.31;4944556;23;20044;-86
2022/06/17 00:23:45;;;;;;;7.75;4.10;;;;;;;18.05;56.69;96752.69;5018812;23;20094;-87
2022/06/17 00:26:12;;;;;;;5.82;3.97;;;;;;;17.94;57.05;96744.97;4937071;29;20038;-86
2022/06/17 00:28:39;;;;;;;7.93;4.28;;;;;;;17.77;57.35;96750.84;4921395;29;20052;-87
2022/06/17 00:31:06;;;;;;;6.32;4.00;;;;;;;17.72;57.62;96767.59;5383604;23;20033;-84
2022/06/17 00:33:50;;;;;;;6.30;4.32;;;;;;;17.72;57.77;96767.59;4905451;29;20072;-88
2022/06/17 00:36:19;;;;;;;5.93;4.32;;;;;;;17.69;57.64;96768.28;4936839;29;20041;-88
2022/06/17 00:38:47;;;;;;;9.45;5.07;;;;;;;17.65;57.94;96770.16;4945294;23;20064;-88
2022/06/17 00:41:17;;;;;;;5.78;4.32;;;;;;;17.62;57.87;96776.38;5072576;23;20116;-87
2022/06/17 00:43:44;;;;;;;6.63;4.07;;;;;;;17.61;57.82;96770.06;4937144;29;20111;-86
2022/06/17 00:46:28;;;;;;;8.02;4.47;;;;;;;17.56;57.62;96764.81;4920297;29;20056;-85
2022/06/17 00:49:06;;;;;;;6.85;4.20;;;;;;;17.58;58.18;96770.75;4937146;29;20075;-87
2022/06/17 00:54:19;;;;;;;5.45;3.95;;;;;;;17.69;58.70;96784.81;5550475;23;20048;-84
2022/06/17 00:56:46;;;;;;;5.35;3.97;;;;;;;17.65;59.93;96781.19;4936684;29;20052;-86
2022/06/17 00:59:14;;;;;;;6.97;4.05;;;;;;;17.66;60.77;96782.78;4926209;29;20051;-86
2022/06/17 01:01:47;;;;;;;7.00;4.18;;;;;;;17.58;59.44;96797.50;4936269;29;20064;-86
2022/06/17 01:04:19;;;;;;;6.60;4.03;;;;;;;17.53;59.10;96792.25;4935733;29;20059;-86
2022/06/17 01:06:51;;;;;;;6.22;4.13;;;;;;;17.55;59.41;96798.22;4920242;29;20104;-86
2022/06/17 01:14:45;;;;;;;4.88;3.90;;;;;;;17.45;58.79;96794.81;5268597;23;20052;-87
2022/06/17 01:17:15;;;;;;;6.20;4.10;;;;;;;17.42;58.96;96800.22;5227786;23;20044;-85
2022/06/17 01:19:46;;;;;;;5.47;4.03;;;;;;;17.40;58.81;96803.34;4937503;29;20059;-85
2022/06/17 01:22:26;;;;;;;5.32;3.40;;;;;;;17.38;58.60;96811.16;4936634;29;20111;-86
2022/06/17 01:24:59;;;;;;;7.72;4.03;;;;;;;17.41;59.81;96820.66;4897052;29;20071;-86
2022/06/17 01:27:32;;;;;;;6.10;4.10;;;;;;;17.38;60.05;96821.34;4936015;29;20500;-86
2022/06/17 01:29:59;;;;;;;7.75;4.25;;;;;;;17.31;59.78;96827.44;4937981;29;20032;-87
2022/06/17 01:34:52;;;;;;;6.82;4.78;;;;;;;17.12;60.05;96830.03;5603730;23;20034;-86
2022/06/17 01:37:19;;;;;;;10.90;5.00;;;;;;;17.05;59.85;96830.63;4937258;29;20115;-87
2022/06/17 01:44:48;;;;;;;5.80;4.32;;;;;;;16.91;61.27;96830.19;5265087;23;20127;-84
2022/06/17 01:49:54;;;;;;;6.45;4.80;;;;;;;16.83;61.28;96834.69;5097819;23;20051;-85
2022/06/17 01:52:26;;;;;;;6.85;4.57;;;;;;;16.82;61.35;96830.34;4929611;29;20052;-85
2022/06/17 01:54:58;;;;;;;5.50;4.60;;;;;;;16.82;61.47;96833.09;4930291;29;20141;-85
2022/06/17 01:57:29;;;;;;;6.75;4.70;;;;;;;16.86;61.84;96831.25;4928935;29;20043;-86
2022/06/17 02:00:01;;;;;;;6.32;3.95;;;;;;;16.89;62.60;96822.31;4929898;29;20067;-86
2022/06/17 02:02:31;;;;;;;5.18;4.22;;;;;;;16.83;61.79;96829.19;4928164;29;20051;-85
2022/06/17 02:05:04;;;;;;;6.68;4.10;;;;;;;16.80;61.78;96812.56;4931400;29;20052;-85
2022/06/17 02:07:33;;;;;;;;;;;;;;;16.78;61.98;96815.69;4931384;29;20048;-84
2022/06/17 02:10:00;;;;;;;14.20;4.55;;;;;;;16.78;62.52;96814.88;4931619;29;19923;-84
2022/06/17 02:12:29;;;;;;;6.93;5.03;;;;;;;16.69;62.09;96813.03;4907563;29;20055;-86
2022/06/17 02:14:57;;;;;;;5.85;4.45;;;;;;;16.66;61.94;96807.44;4911462;29;20463;-84
2022/06/17 02:17:28;;;;;;;5.80;4.18;;;;;;;16.68;63.57;96805.13;4894488;29;20068;-83
2022/06/17 02:19:56;;;;;;;6.25;3.90;;;;;;;16.69;63.93;96806.72;4911698;29;20120;-84
2022/06/17 02:22:25;;;;;;;8.23;4.80;;;;;;;16.66;63.73;96794.47;4911221;29;20049;-84
2022/06/17 02:24:55;;;;;;;6.68;4.25;;;;;;;16.69;64.51;96790.22;4915321;29;20064;-83
2022/06/17 02:27:24;;;;;;;6.88;4.82;;;;;;;16.64;64.29;96779.47;4913692;29;20067;-84
2022/06/17 02:29:52;;;;;;;8.25;4.57;;;;;;;16.66;64.21;96774.44;4911507;29;20056;-82
2022/06/17 02:32:21;;;;;;;4.68;3.88;;;;;;;16.62;62.75;96765.28;4893985;29;20058;-84
2022/06/17 02:34:54;;;;;;;5.22;3.92;;;;;;;16.64;64.65;96758.25;4911048;29;20059;-84
2022/06/17 02:37:30;;;;;;;5.07;4.00;;;;;;;16.64;64.04;96757.47;4909629;29;20048;-83
2022/06/17 02:39:59;;;;;;;7.85;4.43;;;;;;;16.63;63.18;96764.91;4910345;29;20057;-83
2022/06/17 02:42:28;;;;;;;8.65;4.43;;;;;;;16.63;64.03;96764.13;4912374;29;20044;-84
2022/06/17 02:44:58;;;;;;;5.38;4.68;;;;;;;16.54;63.59;96761.50;4911190;29;20052;-84
2022/06/17 02:47:27;;;;;;;7.00;4.97;;;;;;;16.47;62.28;96766.78;4910230;29;20057;-85
2022/06/17 02:49:54;;;;;;;6.38;4.60;;;;;;;16.47;61.99;96771.50;4855460;29;1643225;-84
2022/06/17 02:52:27;;;;;;;8.13;4.82;;;;;;;16.39;62.43;96767.69;4911000;29;20052;-84
2022/06/17 02:54:59;;;;;;;8.43;4.97;;;;;;;16.41;63.65;96763.47;4896048;29;20053;-84
2022/06/17 02:57:28;;;;;;;6.45;4.78;;;;;;;16.42;62.32;96770.56;4910866;29;20051;-83
2022/06/17 03:00:03;;;;;;;8.00;4.75;;;;;;;16.42;62.73;96770.56;4911512;29;20048;-83
2022/06/17 03:02:36;;;;;;;7.70;4.50;;;;;;;16.48;64.95;96778.56;4911167;29;20136;-82
2022/06/17 03:05:03;;;;;;;4.95;4.30;;;;;;;16.44;63.93;96790.28;4910215;29;20514;-83
2022/06/17 03:07:32;;;;;;;6.35;5.35;;;;;;;16.42;64.18;96792.56;4910833;29;20048;-82
2022/06/17 03:09:58;;;;;;;6.70;4.90;;;;;;;16.33;64.53;96805.59;4894550;29;20080;-83
2022/06/17 03:12:29;;;;;;;6.55;4.95;;;;;;;16.22;65.34;96801.72;4893844;29;20044;-84
2022/06/17 03:15:04;;;;;;;7.55;4.60;;;;;;;16.20;66.62;96798.53;4913773;29;20052;-83
2022/06/17 03:20:30;;;;;;;7.43;4.90;;;;;;;16.26;66.58;96804.59;5040195;23;20036;-83
2022/06/17 03:23:03;;;;;;;5.43;4.60;;;;;;;16.24;67.08;96812.38;4936046;29;20086;-84
2022/06/17 03:25:33;;;;;;;;;;;;;;;16.23;66.20;96799.78;4915016;29;20048;-83
2022/06/17 03:28:03;;;;;;;7.70;5.55;;;;;;;16.14;65.24;96810.91;5157607;23;19930;-84
2022/06/17 03:30:34;;;;;;;6.78;4.75;;;;;;;16.17;64.32;96812.94;4908428;29;20044;-82
2022/06/17 03:33:20;;;;;;;8.23;5.57;;;;;;;16.11;65.04;96809.63;4910825;29;20052;-82
2022/06/17 03:35:50;;;;;;;6.85;4.85;;;;;;;16.04;63.60;96808.59;4910898;29;20562;-84
2022/06/17 03:38:28;;;;;;;8.38;5.53;;;;;;;15.99;63.52;96817.06;4909658;29;20408;-84
2022/06/17 03:41:05;;;;;;;8.45;4.90;;;;;;;16.01;65.28;96814.75;4909750;29;20049;-84
2022/06/17 03:43:39;;;;;;;7.18;5.45;;;;;;;16.04;67.00;96822.34;4910508;29;20503;-84
2022/06/17 03:46:07;;;;;;;5.70;4.75;;;;;;;16.09;67.46;96827.59;4908938;29;20055;-85
2022/06/17 03:48:41;;;;;;;7.57;5.30;;;;;;;16.04;66.43;96825.06;4893516;29;20053;-84
2022/06/17 03:51:13;;;;;;;5.10;4.60;;;;;;;16.02;66.19;96830.09;4909734;29;20044;-85
2022/06/17 03:53:43;;;;;;;8.15;5.18;;;;;;;16.00;66.89;96829.66;4909309;29;20040;-84
2022/06/17 03:56:14;;;;;;;9.13;5.60;;;;;;;16.01;68.02;96828.50;4909251;29;20052;-84
2022/06/17 03:58:43;;;;;;;6.68;5.15;;;;;;;15.99;68.23;96819.81;4893221;29;20048;-84
2022/06/17 04:01:15;;;;;;;8.02;5.10;;;;;;;15.93;66.06;96823.94;4910114;29;20055;-84
2022/06/17 04:03:47;;;;;;;7.32;5.63;;;;;;;15.94;67.53;96825.53;4892416;29;20048;-83
2022/06/17 04:06:18;;;;;;;8.30;5.28;;;;;;;16.00;68.22;96832.41;4892321;29;20045;-84
2022/06/17 04:08:53;;;;;;;6.38;5.18;;;;;;;15.99;67.11;96828.03;4877649;29;20468;-84
2022/06/17 04:11:24;;;;;;;6.28;4.80;;;;;;;15.95;66.36;96835.34;4908390;29;20045;-84
2022/06/17 04:13:54;;;;;;;6.32;4.68;;;;;;;15.88;66.01;96839.47;4896081;29;20077;-83
2022/06/17 04:16:28;;;;;;;8.05;4.93;;;;;;;15.80;65.76;96832.13;4908874;29;20063;-84
2022/06/17 04:19:02;;;;;;;8.07;5.32;;;;;;;15.75;65.66;96829.59;4895312;29;20087;-85
2022/06/17 04:21:29;;;;;;;7.72;5.28;;;;;;;15.70;65.20;96832.56;4914963;29;20051;-84
2022/06/17 04:23:56;;;;;;;6.30;4.30;;;;;;;15.76;64.92;96833.13;4978061;23;20052;-83
2022/06/17 04:26:29;;;;;;;6.18;4.72;;;;;;;15.83;67.95;96833.41;4919358;29;20052;-85
2022/06/17 04:28:59;;;;;;;7.50;4.80;;;;;;;15.81;66.30;96836.47;4920411;29;20052;-83
2022/06/17 04:31:29;;;;;;;7.47;4.78;;;;;;;15.87;67.10;96843.38;4935587;29;20115;-83
2022/06/17 04:38:55;;;;;;;6.82;4.70;;;;;;;15.97;67.21;96860.53;4959695;23;20652;-83
2022/06/17 04:41:26;;;;;;;6.80;4.60;;;;;;;16.01;66.71;96869.69;4925588;29;20056;-83
2022/06/17 04:43:56;;;;;;;5.47;4.72;;;;;;;16.04;68.05;96869.03;4909306;29;20048;-83
2022/06/17 04:46:27;;;;;;;8.07;4.40;;;;;;;16.08;67.52;96880.94;4925683;29;20123;-83
2022/06/17 04:48:57;;;;;;;5.95;4.80;;;;;;;16.13;69.88;96872.47;4928941;29;20468;-83
2022/06/17 04:51:24;;;;;;;8.52;4.45;;;;;;;16.21;69.39;96885.31;4918024;29;20043;-84
2022/06/17 04:53:55;;;;;;;8.48;4.70;;;;;;;16.28;69.37;96885.53;4925788;29;20566;-84
2022/06/17 04:56:28;;;;;;;6.43;4.90;;;;;;;16.33;68.21;96888.06;4925713;29;20072;-82
2022/06/17 04:58:54;;;;;;;10.70;5.10;;;;;;;16.38;67.53;96887.84;4926769;29;20081;-83
2022/06/17 05:01:23;;;;;;;8.07;4.43;;;;;;;16.39;66.87;96891.38;4926226;29;20048;-84
2022/06/17 05:03:50;;;;;;;6.80;4.55;;;;;;;16.43;66.55;96898.59;4926127;29;20056;-84
2022/06/17 05:06:16;;;;;;;7.50;4.60;;;;;;;16.50;67.48;96903.56;4926512;29;20115;-84
2022/06/17 05:08:47;;;;;;;6.68;4.70;;;;;;;16.52;66.84;96900.47;4917750;29;20052;-84
2022/06/17 05:11:22;;;;;;;5.95;4.60;;;;;;;16.54;65.91;96898.94;4926312;29;20052;-84
2022/06/17 05:13:54;;;;;;;6.75;4.97;;;;;;;16.62;65.17;96897.25;4917556;29;20049;-84
2022/06/17 05:16:22;;;;;;;9.02;4.50;;;;;;;16.64;64.30;96897.69;4907343;29;20052;-83
2022/06/17 05:18:49;;;;;;;6.82;4.50;;;;;;;16.70;63.40;96907.31;4912756;29;20076;-83
2022/06/17 05:21:19;;;;;;;6.43;4.35;;;;;;;16.79;65.67;96913.53;4909995;29;20059;-82
2022/06/17 05:23:46;;;;;;;6.50;5.15;;;;;;;16.81;66.30;96914.00;4924369;23;20052;-82
2022/06/17 05:26:16;;;;;;;5.75;4.13;;;;;;;16.85;65.28;96919.59;4931157;29;20112;-83
2022/06/17 05:28:43;;;;;;;9.50;4.60;;;;;;;16.86;65.19;96912.94;4933223;29;20045;-84
2022/06/17 05:31:14;;;;;;;6.80;3.97;;;;;;;16.93;62.96;96911.25;4932063;29;20052;-84
2022/06/17 05:33:41;;;;;;;5.95;4.13;;;;;;;17.00;62.64;96913.41;4933051;29;20060;-84
2022/06/17 05:36:09;;;;;;;6.13;4.50;;;;;;;17.00;62.36;96912.59;4906188;29;20052;-83
2022/06/17 05:38:36;;;;;;;6.43;4.70;;;;;;;17.10;64.23;96925.91;4931872;29;20123;-84
2022/06/17 05:41:09;;;;;;;6.95;4.97;;;;;;;17.15;64.13;96917.41;4937974;29;20048;-79
2022/06/17 05:43:43;;;;;;;6.07;4.47;;;;;;;17.23;63.60;96916.47;4921190;29;20044;-85
2022/06/17 05:46:10;;;;;;;6.18;4.35;;;;;;;17.26;62.79;96914.97;4921349;29;20048;-84
2022/06/17 05:48:38;;;;;;;5.30;3.92;;;;;;;17.31;62.36;96920.25;4937990;29;20052;-83
2022/06/17 05:51:05;;;;;;;5.20;3.88;;;;;;;17.39;62.76;96920.09;4938788;29;20055;-81
2022/06/17 05:53:32;;;;;;;7.70;3.75;;;;;;;17.48;63.37;96928.22;4939917;29;20043;-84
2022/06/17 05:55:59;;;;;;;7.10;4.10;;;;;;;17.52;63.39;96931.88;4949703;23;20082;-85
2022/06/17 06:01:01;;;;;;;15.40;5.00;;;;;;;17.57;62.76;96928.06;4918188;29;20055;-85
2022/06/17 06:05:53;;;;;;;8.07;4.25;;;;;;;17.65;60.40;96940.91;5069228;23;20047;-84
2022/06/17 06:08:20;;;;;;;5.85;4.07;;;;;;;17.77;60.80;96945.59;4936824;29;20056;-85
2022/06/17 06:13:29;;;;;;;8.65;4.22;;;;;;;17.88;57.54;96944.75;4973388;23;20040;-84
2022/06/17 06:15:56;;;;;;;5.57;4.10;;;;;;;17.95;59.21;96952.41;4937887;29;20036;-86
2022/06/17 06:21:04;;;;;;;8.63;4.97;;;;;;;17.82;59.83;96962.69;4916396;29;20037;-84
2022/06/17 06:26:09;;;;;;;6.20;3.95;;;;;;;18.18;61.15;96969.19;5055361;23;20119;-83
2022/06/17 06:28:36;;;;;;;6.15;3.72;;;;;;;18.26;60.59;96962.69;4972910;23;20091;-85
2022/06/17 06:31:06;;;;;;;4.60;3.60;;;;;;;18.30;58.95;96966.34;5204400;23;20092;-80
2022/06/17 06:33:33;;;;;;;6.28;3.72;;;;;;;18.37;59.99;96966.53;4940358;29;20043;-86
2022/06/17 06:36:01;;;;;;;5.13;4.13;;;;;;;18.41;59.08;96964.69;4940186;29;20059;-84
2022/06/17 06:38:29;;;;;;;5.10;4.03;;;;;;;18.47;60.20;96963.25;4939895;29;20032;-86
2022/06/17 06:40:55;;;;;;;5.80;3.65;;;;;;;18.55;57.88;96972.53;4924476;29;20059;-85
2022/06/17 06:43:23;;;;;;;5.95;3.83;;;;;;;18.66;56.81;96972.81;5058795;23;20044;-86
2022/06/17 06:46:01;;;;;;;7.18;3.50;;;;;;;18.65;57.71;96968.47;4923352;29;20083;-85
2022/06/17 06:48:44;;;;;;;5.90;3.97;;;;;;;18.64;57.99;96975.94;4924899;29;20111;-88
2022/06/17 06:51:13;;;;;;;5.47;3.80;;;;;;;18.73;57.36;96973.00;4935645;29;20071;-84
2022/06/17 06:53:41;;;;;;;11.90;4.43;;;;;;;18.65;57.08;96971.22;4935644;29;20100;-86
2022/06/17 06:56:08;;;;;;;8.13;4.13;;;;;;;18.81;58.56;96988.59;4936024;29;20036;-86
2022/06/17 06:58:35;;;;;;;7.43;4.13;;;;;;;18.80;58.74;96978.72;4938154;29;20495;-86
2022/06/17 07:01:02;;;;;;;5.82;3.53;;;;;;;18.91;58.74;96974.25;4919277;29;20107;-79
2022/06/17 07:03:30;;;;;;;6.88;4.13;;;;;;;19.00;56.99;96985.94;4933189;29;20116;-86
2022/06/17 07:05:59;;;;;;;8.10;3.60;;;;;;;19.03;56.90;96979.69;4936581;29;20068;-87
2022/06/17 07:08:36;;;;;;;8.50;4.38;;;;;;;19.04;55.94;96984.03;4919487;29;20055;-87
2022/06/17 07:11:05;;;;;;;8.30;4.30;;;;;;;19.06;57.97;96980.94;4935716;29;20122;-79
2022/06/17 07:13:33;;;;;;;6.07;3.92;;;;;;;19.22;57.47;96986.44;4920438;29;20067;-85
2022/06/17 07:16:01;;;;;;;8.02;4.18;;;;;;;19.28;56.16;96993.28;4936635;29;20080;-85
2022/06/17 07:18:30;;;;;;;6.65;4.15;;;;;;;19.33;57.58;97004.03;4934770;29;20127;-87
2022/06/17 07:20:59;;;;;;;9.00;4.30;;;;;;;19.27;58.43;97002.72;4935580;29;20083;-86
2022/06/17 07:23:32;;;;;;;7.65;3.60;;;;;;;19.51;58.68;97008.00;4934087;29;20139;-86
2022/06/17 07:26:00;;;;;;;10.07;3.80;;;;;;;19.63;57.37;97003.53;4919653;29;20052;-86
2022/06/17 07:28:27;;;;;;;11.82;9.98;;;;;;;19.77;57.57;97009.38;4934426;29;20280;-87
2022/06/17 07:30:56;;;;;;;41.63;34.80;;;;;;;19.91;56.80;96997.84;4919327;29;20063;-85
2022/06/17 07:33:26;;;;;;;10.00;5.35;;;;;;;19.75;57.48;97011.72;4935843;29;20043;-86
2022/06/17 07:35:57;;;;;;;7.28;4.28;;;;;;;19.66;57.63;97014.69;4935935;29;20063;-86
2022/06/17 07:41:14;;;;;;;7.60;4.15;;;;;;;19.92;57.31;97011.28;5677722;23;20864;-84
2022/06/17 07:43:41;;;;;;;8.93;4.80;;;;;;;19.91;58.09;97009.69;5333691;23;20056;-82
2022/06/17 07:46:11;;;;;;;9.70;4.80;;;;;;;19.95;57.46;96999.53;5198052;23;20053;-84
2022/06/17 07:58:50;;;;;;;8.57;3.67;;;;;;;20.45;56.64;97014.31;5062598;23;20036;-86
2022/06/17 08:01:17;;;;;;;10.07;3.80;;;;;;;20.60;56.59;97009.91;4921637;29;20056;-86
2022/06/17 08:08:37;;;;;;;10.40;4.43;;;;;;;20.97;56.59;97014.91;5120144;23;20028;-87
2022/06/17 08:16:16;;;;;;;10.80;3.88;;;;;;;21.89;58.22;97012.75;5430468;23;20068;-86
2022/06/17 08:18:44;;;;;;;10.23;3.90;;;;;;;22.58;51.03;97013.22;4933415;29;20042;-85
2022/06/17 08:21:13;;;;;;;9.98;4.13;;;;;;;22.73;48.96;97018.91;4932875;29;20392;-85
2022/06/17 08:23:40;;;;;;;9.50;4.25;;;;;;;23.22;55.22;97013.03;4931975;29;20044;-87
2022/06/17 08:26:07;;;;;;;9.30;3.80;;;;;;;23.34;48.87;97020.28;4932222;29;20124;-85
2022/06/17 08:31:09;;;;;;;6.72;3.45;;;;;;;23.40;49.88;97018.75;5004756;23;20959;-85
2022/06/17 08:36:08;;;;;;;10.43;3.53;;;;;;;23.71;50.78;97022.16;4981687;23;20079;-86
2022/06/17 08:41:22;;;;;;;6.25;3.50;;;;;;;23.58;50.08;97019.66;5596078;23;20051;-76
2022/06/17 08:44:14;;;;;;;5.90;3.13;;;;;;;23.76;50.00;97027.38;4934203;29;20044;-88
2022/06/17 08:46:57;;;;;;;7.47;3.60;;;;;;;23.58;48.20;97022.44;4935089;29;20119;-86
2022/06/17 08:52:12;;;;;;;5.60;3.30;;;;;;;22.96;47.61;97033.44;5679881;23;20061;-87
2022/06/17 09:07:47;;;;;;;8.95;4.28;;;;;;;23.84;53.14;97040.13;5032398;23;20046;-87
2022/06/17 09:10:28;;;;;;;6.68;3.80;;;;;;;23.81;48.52;97041.69;5660560;23;20823;-86
2022/06/17 09:13:06;;;;;;;8.32;3.45;;;;;;;23.75;48.04;97048.00;4917585;29;20052;-83
2022/06/17 09:18:16;;;;;;;6.35;3.67;;;;;;;24.42;47.71;97044.78;5435032;23;20052;-83
2022/06/17 09:20:47;;;;;;;7.80;3.38;;;;;;;24.50;48.64;97040.84;5038359;23;20047;-81
2022/06/17 09:26:00;;;;;;;6.32;3.10;;;;;;;24.47;44.75;97042.41;5497864;23;20036;-79
2022/06/17 09:33:40;;;;;;;5.38;2.95;;;;;;;24.61;43.13;97038.91;5245423;23;20033;-86
2022/06/17 09:36:14;;;;;;;8.27;3.13;;;;;;;24.50;46.11;97035.28;4922763;28;20062;-83
2022/06/17 09:43:57;;;;;;;4.93;3.10;;;;;;;24.81;45.13;97033.00;5285340;23;20052;-85
2022/06/17 09:49:04;;;;;;;4.07;3.15;;;;;;;24.82;42.22;97040.16;5575317;23;20081;-87
2022/06/17 09:59:24;;;;;;;6.43;3.47;;;;;;;24.88;40.05;97036.56;5559439;23;20036;-76
2022/06/17 10:31:20;;;;;;;4.32;2.40;;;;;;;25.39;42.80;97040.22;5170372;23;20036;-86
2022/06/17 10:33:47;;;;;;;3.88;2.40;;;;;;;25.08;41.34;97034.25;4940457;28;20091;-86
2022/06/17 10:36:14;;;;;;;5.93;2.53;;;;;;;25.08;41.36;97025.09;4978909;23;20104;-83
2022/06/17 10:38:46;;;;;;;5.60;2.90;;;;;;;25.14;42.17;97029.88;4937313;29;20047;-87
2022/06/17 10:41:13;;;;;;;3.78;2.25;;;;;;;25.14;38.45;97031.84;4940382;28;20047;-86
2022/06/17 10:43:44;;;;;;;6.30;3.00;;;;;;;24.50;39.36;97029.72;4940899;28;20106;-89
2022/06/17 10:56:52;;;;;;;6.07;2.50;;;;;;;25.24;42.63;97023.50;5811080;23;20032;-76
2022/06/17 11:26:14;;;;;;;3.75;2.10;;;;;;;25.34;38.51;97027.47;5061533;23;20076;-84
2022/06/17 11:28:43;;;;;;;4.55;2.17;;;;;;;25.46;40.17;97009.53;4940412;28;20491;-86
2022/06/17 11:31:14;;;;;;;3.20;2.10;;;;;;;25.20;39.00;97017.13;4940133;29;20052;-86
2022/06/17 11:33:57;;;;;;;3.88;2.20;;;;;;;24.97;39.96;97025.06;4940947;28;20054;-88
2022/06/17 11:46:35;;;;;;;3.75;2.20;;;;;;;25.03;35.74;97006.75;4919032;29;20060;-88
2022/06/17 11:49:10;;;;;;;5.47;2.17;;;;;;;24.89;37.44;97007.50;5316516;23;20044;-78
2022/06/17 12:17:50;;;;;;;5.18;2.53;;;;;;;24.92;38.14;97001.16;5144625;23;20049;-87
2022/06/17 12:20:24;;;;;;;2.88;1.80;;;;;;;24.97;38.44;96995.19;4938420;29;20042;-88
2022/06/17 13:00:20;;;;;;;4.40;2.05;;;;;;;24.82;36.31;96981.66;5671544;23;20048;-78
2022/06/17 13:49:13;;;;;;;3.88;2.00;;;;;;;25.09;39.67;96955.03;5046730;23;20024;-78
2022/06/17 14:02:55;;;;;;;3.75;2.15;;;;;;;25.02;36.75;96968.94;4921239;29;20052;-88
2022/06/17 14:21:00;;;;;;;4.97;1.88;;;;;;;25.28;38.92;96955.81;5282084;23;20048;-88
2022/06/17 14:23:45;;;;;;;7.45;1.80;;;;;;;25.34;39.75;96954.22;5231825;23;20030;-85
2022/06/17 14:26:14;;;;;;;3.42;2.03;;;;;;;25.27;37.69;96951.41;4925376;29;20055;-86
2022/06/17 14:42:05;;;;;;;5.10;1.90;;;;;;;24.87;37.58;96953.41;5810248;23;20842;31
2022/06/17 15:04:26;;;;;;;4.50;1.70;;;;;;;25.15;35.01;96938.69;5997521;23;20264;-86
2022/06/17 15:17:51;;;;;;;4.78;1.60;;;;;;;25.40;33.20;96925.50;5999062;23;20906;-79
2022/06/17 15:20:23;;;;;;;3.13;1.60;;;;;;;25.56;35.08;96922.28;4900090;29;20045;-87
2022/06/17 15:25:38;;;;;;;5.22;1.73;;;;;;;25.13;36.43;96927.94;4882357;29;20052;-86
2022/06/17 15:44:04;;;;;;;3.33;1.60;;;;;;;25.14;34.48;96918.38;5547014;23;20416;-85
2022/06/17 15:53:55;;;;;;;4.57;2.00;;;;;;;24.99;35.74;96923.16;4944584;23;20048;-83
2022/06/17 15:59:06;;;;;;;3.53;1.80;;;;;;;25.26;37.30;96925.53;5309948;23;20032;-86
2022/06/17 16:01:36;;;;;;;3.47;1.98;;;;;;;24.82;34.33;96929.53;4913907;29;20048;-87
2022/06/17 16:04:06;;;;;;;3.60;1.50;;;;;;;25.13;35.30;96932.72;4936668;29;20039;-81
2022/06/17 16:06:39;;;;;;;3.88;1.80;;;;;;;24.94;35.60;96928.31;4921498;29;20039;-87
2022/06/17 16:09:26;;;;;;;4.70;2.10;;;;;;;24.97;35.36;96924.75;4938470;28;20044;-78
2022/06/17 16:11:53;;;;;;;4.18;1.80;;;;;;;24.84;35.92;96931.91;4939850;28;20076;-87
2022/06/17 16:14:31;;;;;;;2.90;1.80;;;;;;;24.93;36.43;96935.09;4937941;29;20068;-88
2022/06/17 16:19:26;;;;;;;2.88;1.80;;;;;;;24.99;36.07;96925.13;4938936;29;20028;-86
2022/06/17 16:22:07;;;;;;;4.43;1.55;;;;;;;24.98;35.55;96931.91;5048103;23;20033;-87
2022/06/17 16:32:06;;;;;;;3.72;2.00;;;;;;;24.73;35.32;96924.34;5963343;23;20029;-77
2022/06/17 16:53:11;;;;;;;2.47;1.77;;;;;;;24.97;39.00;96914.41;5288767;23;20051;-83
2022/06/17 16:55:37;;;;;;;5.47;1.90;;;;;;;24.95;36.83;96915.97;4966544;23;20072;-84
2022/06/17 16:58:04;;;;;;;6.65;1.70;;;;;;;24.86;35.72;96913.63;5181071;23;21059;-85
2022/06/17 17:00:33;;;;;;;2.28;1.50;;;;;;;24.89;34.97;96912.00;4937126;28;20028;-82
2022/06/17 17:05:37;;;;;;;4.20;2.10;;;;;;;24.87;37.91;96914.41;4949020;23;20048;-86
2022/06/17 17:11:08;;;;;;;4.55;1.92;;;;;;;24.67;39.08;96923.16;4900514;29;20052;-88
2022/06/17 17:13:34;;;;;;;3.85;1.90;;;;;;;24.70;41.04;96922.38;4893686;29;20048;-86
2022/06/17 17:16:01;;;;;;;3.20;2.00;;;;;;;24.67;38.65;96934.28;4918279;29;20052;-86
2022/06/17 17:18:29;;;;;;;2.75;2.17;;;;;;;24.66;38.59;96932.69;4916582;29;20063;-85
2022/06/17 17:20:59;;;;;;;2.95;2.00;;;;;;;24.60;39.99;96934.28;4934397;29;20052;-87
2022/06/17 17:23:30;;;;;;;2.85;1.83;;;;;;;24.56;40.63;96933.47;4919261;29;20048;-85
2022/06/17 17:25:57;;;;;;;3.38;1.80;;;;;;;24.40;37.81;96927.50;4937165;28;20080;-87
2022/06/17 17:28:27;;;;;;;2.35;1.70;;;;;;;24.39;37.19;96928.69;5025981;23;20032;-86
2022/06/17 17:30:57;;;;;;;3.60;1.90;;;;;;;24.48;38.96;96926.28;4910524;29;20065;-82
2022/06/17 17:41:25;;;;;;;4.15;2.00;;;;;;;24.35;38.66;96927.84;5376085;23;20044;-86
2022/06/17 17:49:16;;;;;;;2.53;1.92;;;;;;;24.12;38.82;96940.13;5183019;23;20059;-84
2022/06/17 17:51:44;;;;;;;2.88;1.90;;;;;;;24.07;40.08;96945.25;4941951;29;20108;-86
2022/06/17 17:54:11;;;;;;;3.50;1.75;;;;;;;23.99;41.33;96950.00;4940557;28;20075;-85
2022/06/17 17:56:39;;;;;;;3.13;1.80;;;;;;;23.94;41.32;96953.16;4909745;29;20039;-86
2022/06/17 18:01:39;;;;;;;2.88;1.58;;;;;;;23.92;42.17;96952.75;5077769;23;20052;-87
2022/06/17 18:06:41;;;;;;;3.33;1.92;;;;;;;23.83;41.75;96946.75;4918955;29;20292;-78
2022/06/17 18:09:08;;;;;;;2.95;2.08;;;;;;;23.82;41.42;96951.50;4902528;29;20063;-82
2022/06/17 18:11:38;;;;;;;1.98;1.70;;;;;;;23.81;41.47;96940.78;5017093;23;20059;-88
2022/06/17 18:19:27;;;;;;;4.03;2.60;;;;;;;23.73;44.28;96947.50;5152808;23;20040;-80
2022/06/17 18:29:40;;;;;;;4.35;2.40;;;;;;;23.50;43.14;96939.41;5026553;23;20024;-82
2022/06/17 18:34:44;;;;;;;3.75;2.97;;;;;;;23.38;43.18;96938.53;5456620;23;20072;-86
2022/06/17 18:37:12;;;;;;;3.38;2.58;;;;;;;23.34;43.84;96937.72;4938803;29;20059;-86
2022/06/17 18:39:40;;;;;;;7.05;2.85;;;;;;;23.24;43.91;96932.09;4939540;29;20106;-86
2022/06/17 18:44:53;;;;;;;5.30;3.30;;;;;;;23.01;43.21;96929.53;4947102;23;20047;-86
2022/06/17 18:47:22;;;;;;;3.50;2.67;;;;;;;22.99;43.54;96929.94;4921763;29;20092;-86
2022/06/17 18:49:52;;;;;;;3.95;2.42;;;;;;;22.98;43.89;96933.91;4938683;29;20070;-86
2022/06/17 18:52:22;;;;;;;3.78;2.00;;;;;;;22.97;44.46;96929.53;4939042;29;20072;-86
2022/06/17 18:54:50;;;;;;;4.05;2.28;;;;;;;22.93;45.31;96939.81;4936031;29;20051;-86
2022/06/17 19:02:29;;;;;;;3.92;2.50;;;;;;;22.81;45.69;96937.28;5373663;23;20050;-86
2022/06/17 19:04:57;;;;;;;4.57;2.33;;;;;;;22.77;47.19;96942.03;4932226;29;20128;-86
2022/06/17 19:07:25;;;;;;;3.15;2.33;;;;;;;22.70;47.07;96942.72;4932661;29;20044;-85
2022/06/17 19:17:49;;;;;;;3.05;2.10;;;;;;;22.40;45.08;96940.09;4934558;28;20075;-86
2022/06/17 19:20:18;;;;;;;3.35;2.20;;;;;;;22.37;45.00;96940.84;4932638;29;20079;-86
2022/06/17 19:22:47;;;;;;;2.47;1.98;;;;;;;22.32;45.32;96938.41;4927462;23;20096;-86
2022/06/17 19:38:10;;;;;;;5.50;3.60;;;;;;;22.02;50.09;96955.06;5128767;23;20052;-85
2022/06/17 19:43:14;;;;;;;5.25;3.28;;;;;;;21.87;49.96;96965.19;5330301;23;20028;-86
2022/06/17 19:48:24;;;;;;;3.70;2.95;;;;;;;21.77;49.64;96968.63;4922368;29;20112;-87
2022/06/17 19:50:57;;;;;;;3.28;2.50;;;;;;;21.75;49.48;96970.97;4939467;29;20067;-87
2022/06/17 19:55:53;;;;;;;4.78;3.15;;;;;;;21.50;48.77;96974.19;5525432;23;20077;-83
2022/06/17 19:58:20;;;;;;;3.63;2.85;;;;;;;21.54;49.96;96971.50;4937000;29;20115;-87
2022/06/17 20:00:49;;;;;;;6.13;2.92;;;;;;;21.54;49.92;96980.59;4939421;29;20043;-87
2022/06/17 20:03:20;;;;;;;8.02;3.33;;;;;;;21.47;50.39;96977.75;4938247;29;20048;-86
2022/06/17 20:05:48;;;;;;;5.97;3.40;;;;;;;21.54;50.58;96982.56;4939163;29;20079;-87
2022/06/17 20:08:16;;;;;;;5.50;2.95;;;;;;;21.53;51.60;96986.53;4937826;29;20074;-85
2022/06/17 20:10:43;;;;;;;3.92;3.30;;;;;;;21.52;51.60;96991.28;4939270;29;20075;-87
2022/06/17 20:13:12;;;;;;;6.50;4.80;;;;;;;21.47;51.86;96983.28;4938319;29;20076;-87
2022/06/17 20:15:39;;;;;;;5.93;3.55;;;;;;;21.48;52.61;96984.06;4922782;29;20067;-87
2022/06/17 20:18:07;;;;;;;4.05;2.88;;;;;;;21.47;52.25;96983.28;4938075;29;20036;-86